Time;durP1;ratioP1;P1;durP2;ratioP2;P2;SDS_P1;SDS_P2;PMS_P1;PMS_P2;Temp;Humidity;BMP_temperature;BMP_pressure;BME280_temperature;BME280_humidity;BME280_pressure;Samples;Min_cycle;Max_cycle;Signal;HPM_P1;HPM_P2
2022/01/09 00:00:30;;;;;;;3.45;0.73;;;10.90;91.70;;;;;;6257421;22;20016;-73
2022/01/09 00:02:57;;;;;;;2.92;1.15;;;10.90;91.80;;;;;;6246339;22;20066;-73
2022/01/09 00:05:24;;;;;;;2.83;0.80;;;10.90;91.90;;;;;;6238043;22;20467;-72
2022/01/09 00:07:51;;;;;;;2.88;1.10;;;10.90;91.90;;;;;;6238854;22;20372;-73
2022/01/09 00:10:18;;;;;;;2.38;0.85;;;10.80;92.00;;;;;;6250591;22;20060;-72
2022/01/09 00:12:44;;;;;;;2.47;1.08;;;10.80;92.10;;;;;;6240185;22;20027;-73
2022/01/09 00:15:11;;;;;;;2.30;0.82;;;10.80;92.20;;;;;;6239699;22;20336;-74
2022/01/09 00:17:37;;;;;;;3.47;0.98;;;10.80;92.20;;;;;;6246304;22;20019;-72
2022/01/09 00:20:05;;;;;;;3.22;0.88;;;10.80;92.30;;;;;;6229334;22;20478;-73
2022/01/09 00:22:51;;;;;;;1.58;0.80;;;10.70;92.40;;;;;;6218646;22;20482;-73
2022/01/09 00:25:22;;;;;;;3.80;1.08;;;10.70;92.60;;;;;;6240306;22;20054;-73
2022/01/09 00:27:49;;;;;;;2.78;0.95;;;10.70;92.70;;;;;;6241909;22;20020;-73
2022/01/09 00:30:18;;;;;;;4.03;1.15;;;10.70;92.80;;;;;;6240491;22;20087;-75
2022/01/09 00:32:44;;;;;;;2.78;1.00;;;10.60;92.90;;;;;;6240605;22;20083;-73
2022/01/09 00:35:11;;;;;;;4.50;1.10;;;10.60;93.10;;;;;;6237412;22;20022;-73
2022/01/09 00:37:37;;;;;;;5.32;1.15;;;10.50;93.20;;;;;;6237994;22;20750;-73
2022/01/09 00:40:05;;;;;;;1.92;1.00;;;10.50;93.40;;;;;;6237956;22;20023;-72
2022/01/09 00:42:32;;;;;;;1.40;0.75;;;10.50;93.50;;;;;;6238116;22;20432;-73
2022/01/09 00:44:58;;;;;;;6.35;1.13;;;10.50;93.60;;;;;;6251231;22;20102;-73
2022/01/09 00:47:24;;;;;;;2.63;1.10;;;10.50;93.60;;;;;;6250314;22;20019;-74
2022/01/09 00:49:50;;;;;;;2.60;0.80;;;10.50;94.00;;;;;;6240557;22;20063;-73
2022/01/09 00:52:16;;;;;;;2.30;1.00;;;10.40;93.80;;;;;;6236367;22;20072;-74
2022/01/09 00:54:42;;;;;;;8.88;2.10;;;10.40;94.00;;;;;;6239847;22;20016;-73
2022/01/09 00:57:08;;;;;;;1.80;0.77;;;10.50;94.10;;;;;;6239515;22;20020;-73
2022/01/09 00:59:34;;;;;;;4.78;1.15;;;10.50;94.10;;;;;;6252788;22;20019;-72
2022/01/09 01:02:00;;;;;;;4.38;1.10;;;10.40;94.30;;;;;;6241036;22;20026;-72
2022/01/09 01:04:27;;;;;;;8.05;1.00;;;10.40;94.40;;;;;;6239467;22;20317;-72
2022/01/09 01:06:52;;;;;;;5.03;1.10;;;10.40;94.50;;;;;;6251179;22;20046;-72
2022/01/09 01:09:24;;;;;;;2.30;1.00;;;10.40;94.60;;;;;;6239149;22;20078;-72
2022/01/09 01:11:50;;;;;;;3.90;1.17;;;10.30;94.80;;;;;;6240208;22;20023;-72
2022/01/09 01:14:22;;;;;;;3.42;1.02;;;10.30;95.00;;;;;;6268736;22;20351;-73
2022/01/09 01:16:48;;;;;;;5.20;1.55;;;10.20;95.20;;;;;;6247586;22;20095;-72
2022/01/09 01:19:14;;;;;;;2.47;0.88;;;10.30;95.30;;;;;;6249916;22;20038;-73
2022/01/09 01:21:40;;;;;;;2.45;1.02;;;10.40;95.40;;;;;;6239383;22;20012;-74
2022/01/09 01:24:06;;;;;;;1.83;0.80;;;10.30;95.40;;;;;;6237146;22;20024;-72
2022/01/09 01:26:33;;;;;;;3.17;0.95;;;10.30;95.60;;;;;;6239567;22;20446;-72
2022/01/09 01:28:59;;;;;;;2.22;1.08;;;10.30;95.70;;;;;;6239146;22;20083;-73
2022/01/09 01:31:25;;;;;;;4.72;1.20;;;10.20;95.80;;;;;;6238892;22;20109;-72
2022/01/09 01:33:51;;;;;;;2.92;1.10;;;10.20;95.90;;;;;;6261670;22;20031;-73
2022/01/09 01:36:17;;;;;;;2.72;0.95;;;10.20;96.10;;;;;;6240395;22;20016;-73
2022/01/09 01:38:44;;;;;;;2.15;0.80;;;10.20;96.20;;;;;;6249553;22;20110;-72
2022/01/09 01:41:10;;;;;;;3.22;1.00;;;10.20;96.20;;;;;;6258483;22;20008;-72
2022/01/09 01:43:35;;;;;;;2.45;0.82;;;10.10;96.40;;;;;;6263697;22;20716;-72
2022/01/09 01:46:02;;;;;;;3.25;1.05;;;10.10;96.50;;;;;;6250719;22;20046;-73
2022/01/09 01:48:29;;;;;;;5.05;1.25;;;10.20;96.60;;;;;;6239503;22;20364;-74
2022/01/09 01:50:56;;;;;;;3.67;1.17;;;10.20;96.70;;;;;;6238813;22;20069;-74
2022/01/09 01:53:23;;;;;;;4.35;1.77;;;10.20;96.70;;;;;;6224623;22;20099;-73
2022/01/09 01:55:54;;;;;;;2.33;0.73;;;10.20;96.80;;;;;;6252741;22;20020;-72
2022/01/09 01:58:21;;;;;;;4.30;1.05;;;10.20;96.80;;;;;;6238148;22;20066;-72
2022/01/09 02:00:47;;;;;;;4.47;1.10;;;10.30;96.90;;;;;;6240962;22;20016;-73
2022/01/09 02:03:13;;;;;;;3.67;1.05;;;10.20;97.00;;;;;;6250722;22;20008;-73
2022/01/09 02:05:44;;;;;;;2.20;1.02;;;10.20;97.10;;;;;;6240332;22;20008;-73
2022/01/09 02:08:11;;;;;;;4.00;1.20;;;10.20;97.10;;;;;;6227161;22;20005;-72
2022/01/09 02:10:45;;;;;;;2.00;1.05;;;10.20;97.30;;;;;;6270764;22;20019;-72
2022/01/09 02:13:12;;;;;;;2.22;0.95;;;10.20;97.30;;;;;;6232283;22;20015;-72
2022/01/09 02:15:45;;;;;;;2.10;1.17;;;10.20;97.40;;;;;;6269947;22;20455;-73
2022/01/09 02:18:12;;;;;;;;;;;10.20;97.70;;;;;;6258000;22;20325;-72
2022/01/09 02:20:39;;;;;;;4.53;1.45;;;10.20;97.60;;;;;;6270252;22;19934;-72
2022/01/09 02:23:11;;;;;;;3.08;1.08;;;10.20;97.70;;;;;;6256005;22;20014;-72
2022/01/09 02:25:39;;;;;;;3.05;1.27;;;10.20;97.70;;;;;;6248655;22;20036;-73
2022/01/09 02:28:06;;;;;;;4.20;1.30;;;10.20;97.80;;;;;;6238548;22;20012;-73
2022/01/09 02:30:34;;;;;;;3.55;1.08;;;10.20;97.90;;;;;;6258081;22;20052;-73
2022/01/09 02:33:02;;;;;;;3.55;1.20;;;10.30;98.00;;;;;;6258238;22;20012;-73
2022/01/09 02:35:28;;;;;;;5.85;1.33;;;10.20;98.10;;;;;;6234636;22;20017;-73
2022/01/09 02:37:55;;;;;;;4.05;1.20;;;10.20;98.20;;;;;;6268134;22;20023;-72
2022/01/09 02:40:22;;;;;;;3.83;1.25;;;10.20;98.40;;;;;;6256891;22;20110;-73
2022/01/09 02:42:49;;;;;;;2.95;1.05;;;10.20;98.60;;;;;;6247930;22;20020;-72
2022/01/09 02:45:20;;;;;;;2.95;1.23;;;10.20;98.60;;;;;;6241633;22;20039;-74
2022/01/09 02:47:46;;;;;;;3.42;1.10;;;10.40;98.70;;;;;;6238772;22;20016;-73
2022/01/09 02:52:54;;;;;;;3.75;1.52;;;10.30;98.80;;;;;;6253508;22;20100;-72
2022/01/09 02:55:21;;;;;;;6.00;1.88;;;10.30;98.90;;;;;;6251524;22;20352;-72
2022/01/09 02:57:50;;;;;;;4.32;1.20;;;10.40;99.00;;;;;;6250025;22;20459;-72
2022/01/09 03:00:20;;;;;;;3.60;1.20;;;10.40;99.20;;;;;;6256002;22;20018;-73
2022/01/09 03:02:46;;;;;;;2.90;1.05;;;10.40;99.10;;;;;;6261931;22;20023;-73
2022/01/09 03:05:13;;;;;;;3.60;1.30;;;10.40;99.10;;;;;;6239270;22;20012;-73
2022/01/09 03:07:41;;;;;;;5.20;1.17;;;10.30;99.20;;;;;;6259508;22;20073;-73
2022/01/09 03:10:08;;;;;;;3.85;1.17;;;10.40;99.40;;;;;;6258959;22;20022;-74
2022/01/09 03:12:34;;;;;;;4.90;1.38;;;10.50;99.40;;;;;;6257177;22;20015;-74
2022/01/09 03:15:01;;;;;;;4.80;1.33;;;10.50;99.50;;;;;;6257471;22;20019;-72
2022/01/09 03:17:27;;;;;;;4.00;1.33;;;10.50;99.60;;;;;;6250300;22;20074;-73
2022/01/09 03:19:53;;;;;;;3.88;1.40;;;10.40;99.70;;;;;;6251898;22;20099;-71
2022/01/09 03:22:20;;;;;;;3.10;1.27;;;10.40;99.90;;;;;;6250120;22;20028;-72
2022/01/09 03:24:46;;;;;;;5.72;1.20;;;10.40;99.80;;;;;;6210228;22;20016;-74
2022/01/09 03:27:12;;;;;;;5.13;1.58;;;10.40;99.90;;;;;;6262666;22;20019;-72
2022/01/09 03:29:39;;;;;;;2.78;1.20;;;10.40;99.90;;;;;;6261785;22;20084;-72
2022/01/09 03:32:07;;;;;;;4.00;1.38;;;10.50;99.90;;;;;;6210423;22;20016;-73
2022/01/09 03:34:34;;;;;;;5.97;1.23;;;10.40;99.90;;;;;;6241352;22;20009;-73
2022/01/09 03:37:00;;;;;;;2.95;1.40;;;10.40;99.90;;;;;;6251268;22;20024;-73
2022/01/09 03:39:27;;;;;;;3.85;1.63;;;10.40;99.90;;;;;;6256626;22;20023;-73
2022/01/09 03:41:54;;;;;;;4.85;1.30;;;10.40;99.90;;;;;;6261886;22;20070;-72
2022/01/09 03:44:21;;;;;;;4.88;1.33;;;10.50;99.90;;;;;;6237764;22;20016;-74
2022/01/09 03:46:47;;;;;;;6.25;1.23;;;10.40;99.90;;;;;;6238998;22;20088;-72
2022/01/09 03:49:13;;;;;;;2.75;1.20;;;10.40;99.90;;;;;;6249181;22;20012;-73
2022/01/09 03:51:41;;;;;;;3.20;1.40;;;10.40;99.90;;;;;;6246140;22;20086;-73
2022/01/09 03:54:07;;;;;;;3.22;1.15;;;10.40;99.90;;;;;;6223354;22;20402;-73
2022/01/09 03:56:33;;;;;;;5.90;1.30;;;10.30;99.90;;;;;;6250833;22;20066;-72
2022/01/09 03:59:00;;;;;;;4.25;1.00;;;10.30;99.90;;;;;;6242065;22;20027;-72
2022/01/09 04:01:27;;;;;;;5.38;1.40;;;10.30;99.90;;;;;;6239542;22;20015;-73
2022/01/09 04:03:53;;;;;;;6.28;1.20;;;10.20;99.90;;;;;;6214531;23;20091;-72
2022/01/09 04:06:20;;;;;;;3.92;1.60;;;10.30;99.90;;;;;;6237775;22;20447;-72
2022/01/09 04:08:47;;;;;;;3.75;1.52;;;10.20;99.90;;;;;;6252938;22;20014;-72
2022/01/09 04:11:22;;;;;;;3.92;1.38;;;10.20;99.90;;;;;;6265431;22;20020;-73
2022/01/09 04:13:48;;;;;;;6.63;1.30;;;10.20;99.90;;;;;;6234080;22;20015;-73
2022/01/09 04:16:14;;;;;;;3.95;1.40;;;10.20;99.90;;;;;;6253246;22;20046;-73
2022/01/09 04:18:41;;;;;;;3.97;1.33;;;10.30;99.90;;;;;;6205472;23;20012;-73
2022/01/09 04:21:07;;;;;;;4.30;1.27;;;10.30;99.90;;;;;;6235172;22;20008;-72
2022/01/09 04:23:34;;;;;;;4.47;1.27;;;10.30;99.90;;;;;;6250890;22;20012;-74
2022/01/09 04:26:02;;;;;;;3.53;1.25;;;10.30;99.90;;;;;;6241379;22;20020;-72
2022/01/09 04:28:28;;;;;;;2.72;0.95;;;10.30;99.90;;;;;;6211717;23;20199;-72
2022/01/09 04:30:54;;;;;;;5.72;1.00;;;10.30;99.90;;;;;;6238607;22;20019;-73
2022/01/09 04:33:19;;;;;;;3.30;1.17;;;10.30;99.90;;;;;;6239931;22;20074;-73
2022/01/09 04:35:46;;;;;;;5.93;1.20;;;10.40;99.90;;;;;;6240096;22;20144;-73
2022/01/09 04:38:12;;;;;;;4.18;1.20;;;10.30;99.90;;;;;;6239397;22;20012;-72
2022/01/09 04:40:38;;;;;;;3.33;1.60;;;10.20;99.90;;;;;;6229289;22;20011;-74
2022/01/09 04:43:08;;;;;;;4.57;1.10;;;10.30;99.90;;;;;;6245826;22;20444;-72
2022/01/09 04:45:34;;;;;;;3.33;1.10;;;10.30;99.90;;;;;;6259537;22;20099;-72
2022/01/09 04:48:03;;;;;;;4.00;1.23;;;10.30;99.90;;;;;;6255894;22;20015;-73
2022/01/09 04:50:32;;;;;;;4.80;1.58;;;10.30;99.90;;;;;;6267956;22;20004;-73
2022/01/09 04:53:04;;;;;;;3.08;1.38;;;10.20;99.90;;;;;;6259212;22;20096;-73
2022/01/09 04:55:31;;;;;;;3.50;0.95;;;10.20;99.90;;;;;;6237936;22;20099;-73
2022/01/09 04:57:57;;;;;;;2.65;1.10;;;10.20;99.90;;;;;;6238530;22;20012;-72
2022/01/09 05:00:24;;;;;;;3.30;1.23;;;10.10;99.90;;;;;;6217058;22;20015;-73
2022/01/09 05:02:50;;;;;;;3.50;1.20;;;10.10;99.90;;;;;;6246103;22;20012;-72
2022/01/09 05:05:17;;;;;;;2.95;1.15;;;10.10;99.90;;;;;;6255189;22;20012;-72
2022/01/09 05:07:44;;;;;;;3.97;0.93;;;10.10;99.90;;;;;;6248557;22;20436;-72
2022/01/09 05:10:11;;;;;;;2.58;1.05;;;10.20;99.90;;;;;;6237922;22;20011;-73
2022/01/09 05:12:38;;;;;;;2.25;1.13;;;10.20;99.90;;;;;;6238119;22;20024;-74
2022/01/09 05:15:06;;;;;;;3.40;1.10;;;10.10;99.90;;;;;;6226717;22;20012;-72
2022/01/09 05:17:33;;;;;;;3.17;1.17;;;10.10;99.90;;;;;;6239835;22;20020;-72
2022/01/09 05:20:01;;;;;;;4.95;1.13;;;10.00;99.90;;;;;;6238494;23;20091;-73
2022/01/09 05:22:28;;;;;;;3.75;1.55;;;10.00;99.90;;;;;;6238761;22;20012;-72
2022/01/09 05:24:55;;;;;;;6.30;1.30;;;10.00;99.90;;;;;;6232130;23;20004;-72
2022/01/09 05:27:23;;;;;;;2.15;0.88;;;10.00;99.90;;;;;;6244800;22;20020;-73
2022/01/09 05:29:50;;;;;;;4.75;1.15;;;10.00;99.90;;;;;;6246488;22;20503;-73
2022/01/09 05:32:15;;;;;;;3.15;1.13;;;10.00;99.90;;;;;;6253948;22;20016;-72
2022/01/09 05:34:44;;;;;;;3.33;1.15;;;10.00;99.90;;;;;;6269705;22;20026;-72
2022/01/09 05:37:09;;;;;;;3.03;1.02;;;10.00;99.90;;;;;;6269633;22;20012;-72
2022/01/09 05:39:36;;;;;;;4.00;1.00;;;9.90;99.90;;;;;;6249927;22;20402;-72
2022/01/09 05:42:05;;;;;;;1.98;1.00;;;9.90;99.90;;;;;;6212955;23;20020;-73
2022/01/09 05:44:34;;;;;;;2.95;1.17;;;9.90;99.90;;;;;;6238079;22;20027;-72
2022/01/09 05:47:01;;;;;;;3.05;1.10;;;9.90;99.90;;;;;;6250770;22;20012;-72
2022/01/09 05:49:28;;;;;;;4.93;1.30;;;9.90;99.90;;;;;;6255006;22;20090;-72
2022/01/09 05:51:54;;;;;;;5.30;1.45;;;9.90;99.90;;;;;;6244575;22;20285;-72
2022/01/09 05:54:20;;;;;;;1.42;1.00;;;9.80;99.90;;;;;;6238851;22;20031;-73
2022/01/09 05:56:47;;;;;;;2.67;1.20;;;9.90;99.90;;;;;;6239800;22;20016;-72
2022/01/09 05:59:13;;;;;;;4.55;1.30;;;9.80;99.90;;;;;;6250326;22;20012;-72
2022/01/09 06:01:39;;;;;;;7.30;1.35;;;9.80;99.90;;;;;;6245366;22;20327;-72
2022/01/09 06:04:05;;;;;;;3.38;1.30;;;9.80;99.90;;;;;;6269674;22;20317;-73
2022/01/09 06:06:33;;;;;;;3.80;1.20;;;9.80;99.90;;;;;;6263682;22;20012;-72
2022/01/09 06:08:59;;;;;;;2.10;1.20;;;9.80;99.90;;;;;;6263158;22;20424;-72
2022/01/09 06:11:25;;;;;;;5.90;0.98;;;9.70;99.90;;;;;;6236425;22;20097;-73
2022/01/09 06:13:51;;;;;;;5.35;1.13;;;9.80;99.90;;;;;;6238559;22;20338;-73
2022/01/09 06:16:17;;;;;;;3.03;0.90;;;9.70;99.90;;;;;;6236659;22;20024;-73
2022/01/09 06:18:43;;;;;;;2.03;1.02;;;9.70;99.90;;;;;;6237664;22;20439;-73
2022/01/09 06:21:08;;;;;;;3.30;1.00;;;9.70;99.90;;;;;;6239990;22;20057;-72
2022/01/09 06:23:35;;;;;;;2.65;1.45;;;9.70;99.90;;;;;;6271047;22;20077;-73
2022/01/09 06:26:02;;;;;;;3.53;1.00;;;9.70;99.90;;;;;;6244702;22;20066;-73
2022/01/09 06:28:28;;;;;;;4.25;1.45;;;9.70;99.90;;;;;;6270570;22;20018;-72
2022/01/09 06:30:55;;;;;;;4.18;1.20;;;9.60;99.90;;;;;;6245477;22;20410;-72
2022/01/09 06:33:21;;;;;;;3.38;1.40;;;9.70;99.90;;;;;;6237079;22;20020;-74
2022/01/09 06:35:46;;;;;;;3.10;1.23;;;9.70;99.90;;;;;;6240002;22;20020;-73
2022/01/09 06:38:13;;;;;;;2.88;1.20;;;9.60;99.90;;;;;;6238808;22;20043;-73
2022/01/09 06:40:39;;;;;;;3.42;1.10;;;9.60;99.90;;;;;;6240298;22;20005;-73
2022/01/09 06:43:06;;;;;;;3.00;1.33;;;9.60;99.90;;;;;;6239330;22;20451;-72
2022/01/09 06:45:32;;;;;;;2.28;1.13;;;9.60;99.90;;;;;;6248563;22;20502;-73
2022/01/09 06:47:59;;;;;;;1.70;1.02;;;9.60;99.90;;;;;;6239486;22;20008;-73
2022/01/09 06:50:27;;;;;;;3.40;1.20;;;9.60;99.90;;;;;;6238781;22;20020;-74
2022/01/09 06:52:53;;;;;;;4.03;1.20;;;9.70;99.90;;;;;;6238207;22;20019;-72
2022/01/09 06:55:19;;;;;;;2.10;1.00;;;9.70;99.90;;;;;;6235421;22;20399;-73
2022/01/09 06:57:46;;;;;;;2.83;1.30;;;9.60;99.90;;;;;;6239054;22;20012;-72
2022/01/09 07:00:14;;;;;;;6.70;1.20;;;9.70;99.90;;;;;;6237993;22;20066;-73
2022/01/09 07:02:40;;;;;;;3.83;1.20;;;9.70;99.90;;;;;;6237111;23;20016;-72
2022/01/09 07:05:06;;;;;;;4.00;1.50;;;9.70;99.90;;;;;;6216189;22;20073;-72
2022/01/09 07:07:33;;;;;;;4.60;1.20;;;9.70;99.90;;;;;;6239210;22;20020;-73
2022/01/09 07:09:58;;;;;;;2.03;0.98;;;9.70;99.90;;;;;;6249077;22;20016;-72
2022/01/09 07:12:24;;;;;;;3.00;1.00;;;9.60;99.90;;;;;;6255777;22;20016;-72
2022/01/09 07:14:51;;;;;;;5.53;1.27;;;9.60;99.90;;;;;;6271037;22;20138;-73
2022/01/09 07:17:17;;;;;;;2.13;0.93;;;9.60;99.90;;;;;;6256211;22;20020;-72
2022/01/09 07:19:43;;;;;;;3.00;1.30;;;9.60;99.90;;;;;;6246564;22;20933;-72
2022/01/09 07:22:09;;;;;;;4.45;1.13;;;9.50;99.90;;;;;;6240387;22;20095;-73
2022/01/09 07:24:35;;;;;;;1.90;1.00;;;9.50;99.90;;;;;;6270149;22;20020;-72
2022/01/09 07:27:01;;;;;;;4.65;1.05;;;9.60;99.90;;;;;;6258509;22;20069;-72
2022/01/09 07:29:27;;;;;;;1.80;0.90;;;9.70;99.90;;;;;;6258185;22;20016;-72
2022/01/09 07:31:53;;;;;;;2.83;1.10;;;9.60;99.90;;;;;;6261395;22;20007;-73
2022/01/09 07:34:21;;;;;;;2.60;1.10;;;9.60;99.90;;;;;;6254825;22;20015;-71
2022/01/09 07:36:48;;;;;;;2.45;1.00;;;9.70;99.90;;;;;;6224642;22;20529;-72
2022/01/09 07:39:14;;;;;;;2.42;1.08;;;9.70;99.90;;;;;;6240607;22;20074;-73
2022/01/09 07:41:41;;;;;;;4.97;1.30;;;9.70;99.90;;;;;;6242241;22;20058;-73
2022/01/09 07:44:08;;;;;;;2.42;1.42;;;9.70;99.90;;;;;;6238766;22;20044;-73
2022/01/09 07:46:34;;;;;;;3.25;1.00;;;9.70;99.90;;;;;;6214507;23;20016;-73
2022/01/09 07:49:01;;;;;;;2.20;1.10;;;9.60;99.90;;;;;;6266750;22;20458;-73
2022/01/09 07:51:28;;;;;;;3.58;1.38;;;9.60;99.90;;;;;;6256133;22;20064;-74
2022/01/09 07:53:54;;;;;;;3.38;1.33;;;9.70;99.90;;;;;;6260936;22;20023;-73
2022/01/09 07:56:21;;;;;;;5.20;1.30;;;9.70;99.90;;;;;;6239251;22;20027;-73
2022/01/09 07:58:47;;;;;;;5.90;1.40;;;9.80;99.90;;;;;;6241198;22;20012;-72
2022/01/09 08:01:13;;;;;;;3.40;1.27;;;9.80;99.90;;;;;;6239769;22;20297;-73
2022/01/09 08:03:39;;;;;;;4.63;1.20;;;9.80;99.90;;;;;;6239142;22;20099;-72
2022/01/09 08:06:06;;;;;;;3.03;1.25;;;9.80;99.90;;;;;;6240147;22;20099;-73
2022/01/09 08:08:32;;;;;;;4.10;1.20;;;9.90;99.90;;;;;;6241689;22;20452;-74
2022/01/09 08:10:58;;;;;;;6.07;1.13;;;10.00;99.90;;;;;;6243119;22;20027;-73
2022/01/09 08:13:24;;;;;;;2.55;1.20;;;10.00;99.90;;;;;;6241986;22;20020;-73
2022/01/09 08:15:50;;;;;;;2.33;1.15;;;10.00;99.90;;;;;;6252010;22;20012;-73
2022/01/09 08:18:19;;;;;;;3.42;1.08;;;10.10;99.90;;;;;;6253465;22;20435;-75
2022/01/09 08:20:46;;;;;;;5.70;1.50;;;10.10;99.90;;;;;;6248501;22;20016;-73
2022/01/09 08:23:17;;;;;;;1.42;1.02;;;10.20;99.90;;;;;;6240472;22;20019;-74
2022/01/09 08:25:43;;;;;;;2.45;1.08;;;10.20;99.90;;;;;;6239117;22;20012;-72
2022/01/09 08:28:09;;;;;;;4.35;1.30;;;10.30;99.90;;;;;;6240077;22;20516;-73
2022/01/09 08:30:35;;;;;;;2.55;1.25;;;10.30;99.90;;;;;;6240599;22;20019;-73
2022/01/09 08:33:01;;;;;;;3.08;1.60;;;10.30;99.90;;;;;;6231381;22;20427;-72
2022/01/09 08:35:27;;;;;;;6.35;1.30;;;11.40;99.90;;;;;;6230908;22;20012;-72
2022/01/09 08:37:52;;;;;;;1.45;1.20;;;11.10;99.90;;;;;;6258841;22;20355;-72
2022/01/09 08:40:22;;;;;;;5.03;1.45;;;11.10;99.90;;;;;;6256316;22;20019;-72
2022/01/09 08:42:53;;;;;;;3.60;1.10;;;11.70;99.90;;;;;;6248275;22;20019;-73
2022/01/09 08:45:20;;;;;;;1.85;1.00;;;11.30;99.90;;;;;;6236537;22;20020;-73
2022/01/09 08:47:46;;;;;;;2.65;1.40;;;11.00;99.90;;;;;;6239627;22;20027;-73
2022/01/09 08:50:14;;;;;;;3.15;1.20;;;12.20;99.90;;;;;;6240075;22;20016;-73
2022/01/09 08:52:41;;;;;;;3.88;1.35;;;12.20;99.90;;;;;;6253070;22;20016;-73
2022/01/09 08:55:08;;;;;;;3.03;1.40;;;12.50;99.90;;;;;;6238546;22;20008;-73
2022/01/09 08:57:37;;;;;;;3.17;1.50;;;12.70;99.90;;;;;;6236302;22;20046;-73
2022/01/09 09:00:05;;;;;;;3.33;1.30;;;12.80;99.90;;;;;;6240092;22;20020;-72
2022/01/09 09:02:31;;;;;;;2.33;1.25;;;12.30;99.90;;;;;;6264893;22;20043;-73
2022/01/09 09:04:58;;;;;;;1.52;1.13;;;12.00;99.90;;;;;;6239896;22;20062;-76
2022/01/09 09:07:24;;;;;;;3.40;1.23;;;12.00;99.90;;;;;;6236733;22;20020;-73
2022/01/09 09:09:52;;;;;;;3.03;1.30;;;11.70;99.90;;;;;;6252077;22;20378;-73
2022/01/09 09:12:19;;;;;;;2.35;1.20;;;11.70;99.90;;;;;;6239893;22;20048;-75
2022/01/09 09:14:48;;;;;;;2.92;1.30;;;11.70;99.90;;;;;;6239954;22;20011;-77
2022/01/09 09:17:14;;;;;;;1.98;0.82;;;11.90;99.90;;;;;;6212821;22;20031;-74
2022/01/09 09:19:40;;;;;;;1.60;0.90;;;12.10;99.90;;;;;;6238801;22;20018;-72
2022/01/09 09:22:07;;;;;;;2.72;0.77;;;12.10;99.90;;;;;;6238835;22;20061;-73
2022/01/09 09:24:35;;;;;;;2.15;1.10;;;12.20;99.90;;;;;;6240644;22;20448;-73
2022/01/09 09:27:01;;;;;;;2.55;1.05;;;12.10;99.90;;;;;;6241103;22;20016;-74
2022/01/09 09:29:27;;;;;;;1.80;0.90;;;12.10;99.90;;;;;;6240436;22;20012;-73
2022/01/09 09:31:54;;;;;;;2.38;1.00;;;12.10;99.90;;;;;;6263919;22;20007;-73
2022/01/09 09:34:20;;;;;;;2.22;0.90;;;12.30;99.90;;;;;;6238982;22;20047;-73
2022/01/09 09:36:47;;;;;;;2.20;0.70;;;12.60;99.90;;;;;;6249684;22;20396;-72
2022/01/09 09:39:13;;;;;;;2.65;0.80;;;12.60;99.90;;;;;;6237239;22;20012;-75
2022/01/09 09:41:41;;;;;;;2.13;1.08;;;12.90;99.90;;;;;;6240298;23;20047;-75
2022/01/09 09:44:09;;;;;;;2.17;0.90;;;13.10;99.90;;;;;;6241219;22;20019;-72
2022/01/09 09:46:36;;;;;;;1.88;0.73;;;13.20;99.90;;;;;;6239155;22;20336;-74
2022/01/09 09:49:03;;;;;;;1.48;0.82;;;13.40;99.90;;;;;;6241403;22;20029;-73
2022/01/09 09:51:30;;;;;;;2.95;1.20;;;13.20;99.90;;;;;;6241011;22;20103;-74
2022/01/09 09:53:57;;;;;;;2.60;0.90;;;13.70;99.90;;;;;;6259023;22;20031;-73
2022/01/09 09:56:24;;;;;;;1.63;1.00;;;13.50;99.90;;;;;;6262929;22;20020;-73
2022/01/09 09:58:52;;;;;;;1.95;0.90;;;13.80;99.90;;;;;;6239574;22;20023;-73
2022/01/09 10:01:27;;;;;;;1.50;0.90;;;13.80;99.90;;;;;;6251604;22;20074;-73
2022/01/09 10:03:58;;;;;;;1.38;0.80;;;13.90;99.90;;;;;;6238574;22;20018;-73
2022/01/09 10:06:54;;;;;;;1.27;0.70;;;13.80;99.90;;;;;;6266857;22;20031;-73
2022/01/09 10:09:23;;;;;;;2.65;0.82;;;14.00;99.90;;;;;;6256132;22;20423;-73
2022/01/09 10:11:55;;;;;;;0.75;0.68;;;13.60;99.90;;;;;;6258356;22;20019;-73
2022/01/09 10:14:28;;;;;;;1.98;0.73;;;13.80;99.90;;;;;;6254578;22;20086;-74
2022/01/09 10:17:19;;;;;;;1.17;0.80;;;13.90;99.90;;;;;;6257919;22;20084;-75
2022/01/09 10:19:53;;;;;;;1.40;0.68;;;14.10;99.90;;;;;;6228495;22;20095;-75
2022/01/09 10:22:33;;;;;;;2.58;0.80;;;13.80;99.90;;;;;;6249779;22;20020;-74
2022/01/09 10:25:16;;;;;;;1.83;0.80;;;13.90;99.90;;;;;;6250058;22;20022;-73
2022/01/09 10:27:42;;;;;;;1.23;0.73;;;13.90;99.90;;;;;;6294037;22;20458;-73
2022/01/09 10:30:09;;;;;;;2.00;0.85;;;14.20;99.90;;;;;;6256205;22;20450;-73
2022/01/09 10:32:36;;;;;;;1.20;0.77;;;13.90;99.90;;;;;;6263595;22;20467;-73
2022/01/09 10:35:16;;;;;;;1.48;0.70;;;13.90;99.90;;;;;;6227394;22;20007;-74
2022/01/09 10:37:45;;;;;;;2.40;0.90;;;13.70;99.90;;;;;;6249325;22;20008;-73
2022/01/09 10:40:22;;;;;;;1.27;0.70;;;14.20;99.90;;;;;;6238296;22;20068;-74
2022/01/09 10:43:17;;;;;;;1.60;0.80;;;13.90;99.90;;;;;;6235746;22;20085;-74
2022/01/09 10:45:46;;;;;;;3.65;0.80;;;14.10;99.90;;;;;;6243628;22;20419;-73
2022/01/09 10:48:21;;;;;;;2.95;0.70;;;14.30;99.90;;;;;;6227668;22;20012;-73
2022/01/09 10:50:49;;;;;;;2.45;0.77;;;14.30;99.70;;;;;;6231376;22;20668;-75
2022/01/09 10:53:31;;;;;;;0.82;0.73;;;14.40;99.70;;;;;;6230402;22;20018;-73
2022/01/09 10:56:00;;;;;;;;;;;14.40;99.70;;;;;;6241658;22;20015;-74
2022/01/09 10:58:27;;;;;;;1.33;0.70;;;14.20;99.50;;;;;;6281532;22;19915;-76
2022/01/09 11:01:26;;;;;;;1.13;0.70;;;14.50;99.20;;;;;;6245306;22;20015;-73
2022/01/09 11:04:07;;;;;;;1.35;0.63;;;14.50;99.20;;;;;;6262587;22;20117;-73
2022/01/09 11:06:38;;;;;;;1.48;0.57;;;14.70;99.00;;;;;;6245144;22;20646;-74
2022/01/09 11:09:06;;;;;;;0.77;0.57;;;14.50;99.30;;;;;;6249416;22;20016;-72
2022/01/09 11:14:14;;;;;;;0.60;0.50;;;14.90;98.50;;;;;;6239863;22;20023;-73
2022/01/09 11:17:05;;;;;;;;;;;;;;;;;;;;;
2022/01/09 11:19:33;;;;;;;0.63;0.63;;;15.10;98.50;;;;;;6232597;22;20402;-75
2022/01/09 11:22:11;;;;;;;0.77;0.50;;;15.20;98.00;;;;;;6275949;22;20016;-75
2022/01/09 11:25:27;;;;;;;;;;;;;;;;;;;;;
2022/01/09 11:28:20;;;;;;;1.55;0.75;;;15.30;98.30;;;;;;6271871;22;20991;-75
2022/01/09 11:31:09;;;;;;;1.48;0.65;;;14.90;98.50;;;;;;6253195;22;20008;-76
2022/01/09 11:34:32;;;;;;;0.85;0.52;;;15.30;98.30;;;;;;6255576;22;20102;-74
2022/01/09 11:37:29;;;;;;;1.00;0.70;;;15.20;98.00;;;;;;6230373;22;20015;-77
2022/01/09 11:40:17;;;;;;;2.45;0.90;;;15.70;97.40;;;;;;6264910;22;20011;-77
2022/01/09 11:43:07;;;;;;;2.10;0.80;;;15.60;97.80;;;;;;6256929;22;20022;-76
2022/01/09 11:45:58;;;;;;;3.38;0.80;;;15.60;97.50;;;;;;6251656;22;20016;-76
2022/01/09 11:48:52;;;;;;;1.48;0.60;;;15.40;97.70;;;;;;6248300;22;20027;-77
2022/01/09 11:51:25;;;;;;;3.17;0.70;;;15.20;97.70;;;;;;6219227;22;20016;-74
2022/01/09 11:54:01;;;;;;;1.63;0.88;;;15.40;97.70;;;;;;6293106;22;20020;-76
2022/01/09 11:57:06;;;;;;;2.65;0.63;;;14.80;97.60;;;;;;6237733;22;20013;-76
2022/01/09 11:59:31;;;;;;;1.85;0.50;;;15.50;97.20;;;;;;6245870;23;20352;-76
2022/01/09 12:01:59;;;;;;;2.58;0.65;;;14.80;97.60;;;;;;6245679;22;20020;-77
2022/01/09 12:04:35;;;;;;;2.60;0.60;;;15.30;97.30;;;;;;6248289;22;20016;-77
2022/01/09 12:07:11;;;;;;;0.75;0.60;;;15.40;96.90;;;;;;6247270;22;20012;-75
2022/01/09 12:09:41;;;;;;;2.05;0.60;;;14.90;97.30;;;;;;6271955;22;20397;-74
2022/01/09 12:12:14;;;;;;;1.92;0.60;;;15.80;96.60;;;;;;6258854;22;20016;-76
2022/01/09 12:15:02;;;;;;;1.58;0.68;;;16.20;96.30;;;;;;6248036;22;20000;-75
2022/01/09 12:17:36;;;;;;;0.77;0.52;;;15.60;96.50;;;;;;6264686;22;20054;-75
2022/01/09 12:20:14;;;;;;;2.85;0.82;;;15.50;96.60;;;;;;6278664;22;20015;-75
2022/01/09 12:22:46;;;;;;;0.47;0.45;;;15.50;96.60;;;;;;6267447;22;20028;-75
2022/01/09 12:25:24;;;;;;;4.47;0.70;;;15.60;96.60;;;;;;6265137;22;20027;-73
2022/01/09 12:27:54;;;;;;;2.13;0.75;;;15.80;96.70;;;;;;6267872;22;20027;-79
2022/01/09 12:30:52;;;;;;;1.85;0.60;;;16.30;96.20;;;;;;6238248;22;20470;-77
2022/01/09 12:33:27;;;;;;;1.27;0.90;;;16.20;96.10;;;;;;6280605;22;20042;-77
2022/01/09 12:36:18;;;;;;;1.27;0.70;;;16.10;96.00;;;;;;6257290;22;20009;-78
2022/01/09 12:38:47;;;;;;;1.58;0.68;;;16.30;95.90;;;;;;6250269;22;20023;-76
2022/01/09 12:41:20;;;;;;;2.45;0.70;;;16.20;95.90;;;;;;6251534;22;20336;-78
2022/01/09 12:44:00;;;;;;;2.28;0.68;;;15.50;96.30;;;;;;6242755;22;20004;-78
2022/01/09 12:46:29;;;;;;;0.85;0.70;;;16.60;95.40;;;;;;6251126;22;20038;-77
2022/01/09 12:49:02;;;;;;;3.85;0.80;;;16.20;95.30;;;;;;6250438;22;20432;-74
2022/01/09 12:51:30;;;;;;;2.53;0.90;;;16.20;95.40;;;;;;6259839;22;20510;-76
2022/01/09 12:53:58;;;;;;;0.80;0.63;;;16.60;95.30;;;;;;6250586;22;20404;-75
2022/01/09 12:56:28;;;;;;;2.78;0.70;;;16.40;95.00;;;;;;6247347;22;20023;-76
2022/01/09 12:59:05;;;;;;;1.67;0.90;;;16.50;94.90;;;;;;6251150;22;20025;-78
2022/01/09 13:01:53;;;;;;;1.02;0.70;;;16.60;94.70;;;;;;6259473;22;20111;-77
2022/01/09 13:04:34;;;;;;;1.65;0.80;;;16.90;94.70;;;;;;6231232;22;20012;-80
2022/01/09 13:07:01;;;;;;;2.22;0.80;;;17.50;94.00;;;;;;6243715;23;20317;-79